createdAt,value
2019-03-04T00:00:50.961Z,94767.83
2019-03-04T00:01:55.832Z,94762.73
2019-03-04T00:02:59.327Z,94763.70
2019-03-04T00:04:02.848Z,94762.43
2019-03-04T00:05:06.733Z,94759.22
2019-03-04T00:06:10.235Z,94755.66
2019-03-04T00:07:13.655Z,94758.09
2019-03-04T00:08:17.105Z,94746.83
2019-03-04T00:09:20.552Z,94755.47
2019-03-04T00:10:23.974Z,94752.89
2019-03-04T00:11:27.402Z,94750.07
2019-03-04T00:12:30.825Z,94747.80
2019-03-04T00:13:34.325Z,94745.78
2019-03-04T00:14:37.841Z,94751.34
2019-03-04T00:15:41.513Z,94746.88
2019-03-04T00:16:44.934Z,94750.27
2019-03-04T00:17:48.423Z,94746.53
2019-03-04T00:18:51.846Z,94749.92
2019-03-04T00:19:55.311Z,94751.44
2019-03-04T00:20:58.723Z,94738.36
2019-03-04T00:22:02.142Z,94737.40
2019-03-04T00:23:05.650Z,94742.05
2019-03-04T00:24:09.073Z,94738.75
2019-03-04T00:25:12.666Z,94733.52
2019-03-04T00:26:16.121Z,94739.56
2019-03-04T00:27:19.552Z,94737.09
2019-03-04T00:28:22.974Z,94734.83
2019-03-04T00:29:26.401Z,94729.42
2019-03-04T00:30:29.934Z,94726.20
2019-03-04T00:31:33.425Z,94731.25
2019-03-04T00:32:36.852Z,94723.38
2019-03-04T00:33:40.278Z,94729.73
2019-03-04T00:34:43.783Z,94723.92
2019-03-04T00:35:47.294Z,94724.28
2019-03-04T00:36:50.741Z,94726.91
2019-03-04T00:37:54.170Z,94726.34
2019-03-04T00:38:57.656Z,94725.38
2019-03-04T00:40:01.155Z,94721.46
2019-03-04T00:41:04.591Z,94726.30
2019-03-04T00:42:08.051Z,94724.08
2019-03-04T00:43:11.476Z,94714.13
2019-03-04T00:44:14.896Z,94720.95
2019-03-04T00:45:18.465Z,94713.28
2019-03-04T00:46:21.976Z,94718.56
2019-03-04T00:47:25.432Z,94712.77
2019-03-04T00:48:28.863Z,94707.48
2019-03-04T00:49:32.293Z,94705.25
2019-03-04T00:50:35.787Z,94710.45
2019-03-04T00:51:39.236Z,94707.28
2019-03-04T00:52:42.762Z,94703.53
2019-03-04T00:53:46.192Z,94700.51
2019-03-04T00:54:49.680Z,94698.03
2019-03-04T00:55:53.123Z,94697.27
2019-03-04T00:56:56.568Z,94697.42
2019-03-04T00:57:59.993Z,94695.91
2019-03-04T00:59:03.487Z,94693.98
2019-03-04T01:00:10.130Z,94695.14
2019-03-04T01:01:13.635Z,94690.26
2019-03-04T01:02:17.117Z,94690.09
2019-03-04T01:03:20.592Z,94693.14
2019-03-04T01:04:24.012Z,94690.16
2019-03-04T01:05:27.519Z,94697.48
2019-03-04T01:06:31.004Z,94684.77
2019-03-04T01:07:34.521Z,94682.89
2019-03-04T01:08:37.955Z,94683.24
2019-03-04T01:09:41.430Z,94683.20
2019-03-04T01:10:44.957Z,94685.20
2019-03-04T01:11:48.451Z,94681.13
2019-03-04T01:12:52.044Z,94679.41
2019-03-04T01:13:55.563Z,94682.02
2019-03-04T01:14:58.987Z,94684.24
2019-03-04T01:16:02.486Z,94678.58
2019-03-04T01:17:06.046Z,94683.98
2019-03-04T01:18:09.552Z,94679.70
2019-03-04T01:19:12.977Z,94681.20
2019-03-04T01:20:20.061Z,94671.22
2019-03-04T01:21:23.473Z,94675.36
2019-03-04T01:22:26.932Z,94668.66
2019-03-04T01:23:30.384Z,94673.20
2019-03-04T01:24:33.876Z,94671.89
2019-03-04T01:25:37.306Z,94664.81
2019-03-04T01:26:40.746Z,94663.14
2019-03-04T01:27:44.232Z,94660.54
2019-03-04T01:28:47.747Z,94662.00
2019-03-04T01:29:51.250Z,94659.21
2019-03-04T01:30:55.217Z,94660.69
2019-03-04T01:31:58.642Z,94660.08
2019-03-04T01:33:02.090Z,94656.89
2019-03-04T01:34:05.598Z,94653.87
2019-03-04T01:35:09.261Z,94657.45
2019-03-04T01:36:12.760Z,94657.45
2019-03-04T01:37:16.186Z,94657.15
2019-03-04T01:38:19.641Z,94663.14
2019-03-04T01:39:23.068Z,94658.31
2019-03-04T01:40:26.509Z,94647.27
2019-03-04T01:41:29.934Z,94654.03
2019-03-04T01:42:33.424Z,94651.91
2019-03-04T01:43:36.868Z,94650.48
2019-03-04T01:44:40.295Z,94648.78
2019-03-04T01:45:43.851Z,94647.11
2019-03-04T01:46:47.353Z,94650.48
2019-03-04T01:47:50.781Z,94649.17
2019-03-04T01:48:54.228Z,94641.06
2019-03-04T01:49:57.680Z,94641.21
2019-03-04T01:51:01.100Z,94636.17
2019-03-04T01:52:04.531Z,94637.67
2019-03-04T01:53:08.028Z,94635.25
2019-03-04T01:54:11.468Z,94637.93
2019-03-04T01:55:16.951Z,94634.25
2019-03-04T01:56:20.417Z,94623.81
2019-03-04T01:57:23.845Z,94625.50
2019-03-04T01:58:27.275Z,94619.53
2019-03-04T01:59:30.721Z,94601.72
2019-03-04T02:00:34.393Z,94606.22
2019-03-04T02:01:37.809Z,94605.26
2019-03-04T02:02:41.298Z,94608.42
2019-03-04T02:03:44.718Z,94595.30
2019-03-04T02:04:48.164Z,94596.43
2019-03-04T02:05:51.590Z,94602.83
2019-03-04T02:06:55.162Z,94600.62
2019-03-04T02:07:58.582Z,94585.84
2019-03-04T02:09:02.014Z,94592.81
2019-03-04T02:10:08.790Z,94590.48
2019-03-04T02:11:12.417Z,94590.15
2019-03-04T02:12:15.900Z,94584.34
2019-03-04T02:13:19.387Z,94586.41
2019-03-04T02:14:22.883Z,94581.41
2019-03-04T02:15:26.326Z,94580.87
2019-03-04T02:16:30.295Z,94585.76
2019-03-04T02:17:33.723Z,94575.48
2019-03-04T02:18:37.149Z,94578.25
2019-03-04T02:19:40.594Z,94577.14
2019-03-04T02:20:44.030Z,94571.85
2019-03-04T02:21:47.457Z,94576.69
2019-03-04T02:22:50.958Z,94569.23
2019-03-04T02:23:54.389Z,94567.56
2019-03-04T02:24:57.815Z,94554.70
2019-03-04T02:26:06.694Z,94564.43
2019-03-04T02:27:10.116Z,94556.21
2019-03-04T02:28:13.539Z,94565.53
2019-03-04T02:29:16.971Z,94556.38
2019-03-04T02:30:25.502Z,94545.89
2019-03-04T02:31:29.014Z,94543.11
2019-03-04T02:32:32.444Z,94545.14
2019-03-04T02:33:35.937Z,94535.45
2019-03-04T02:34:39.384Z,94535.70
2019-03-04T02:35:42.806Z,94528.39
2019-03-04T02:36:46.362Z,94536.46
2019-03-04T02:37:50.063Z,94533.63
2019-03-04T02:38:53.552Z,94530.31
2019-03-04T02:39:59.732Z,94526.02
2019-03-04T02:41:03.158Z,94524.92
2019-03-04T02:42:06.670Z,94530.17
2019-03-04T02:43:10.111Z,94524.20
2019-03-04T02:44:13.603Z,94516.96
2019-03-04T02:45:20.467Z,94518.06
2019-03-04T02:46:23.890Z,94522.56
2019-03-04T02:47:27.332Z,94519.03
2019-03-04T02:48:30.763Z,94519.64
2019-03-04T02:49:34.197Z,94513.84
2019-03-04T02:50:37.610Z,94507.25
2019-03-04T02:51:41.177Z,94502.91
2019-03-04T02:52:44.707Z,94510.22
2019-03-04T02:53:48.134Z,94504.63
2019-03-04T02:54:51.831Z,94491.76
2019-03-04T02:55:55.274Z,94487.59
2019-03-04T02:56:58.858Z,94497.72
2019-03-04T02:58:02.383Z,94495.70
2019-03-04T02:59:05.871Z,94492.56
2019-03-04T03:00:17.313Z,94497.42
2019-03-04T03:01:20.743Z,94500.59
2019-03-04T03:02:24.192Z,94490.30
2019-03-04T03:03:27.633Z,94480.13
2019-03-04T03:04:31.124Z,94479.36
2019-03-04T03:05:34.542Z,94481.04
2019-03-04T03:06:38.034Z,94476.97
2019-03-04T03:07:41.525Z,94469.50
2019-03-04T03:08:45.038Z,94470.45
2019-03-04T03:09:48.462Z,94471.77
2019-03-04T03:10:51.966Z,94461.50
2019-03-04T03:11:55.394Z,94458.11
2019-03-04T03:12:58.817Z,94457.11
2019-03-04T03:14:02.285Z,94457.11
2019-03-04T03:15:11.101Z,94459.37
2019-03-04T03:16:14.592Z,94449.64
2019-03-04T03:17:18.028Z,94450.05
2019-03-04T03:18:21.448Z,94443.45
2019-03-04T03:19:24.959Z,94443.84
2019-03-04T03:20:28.453Z,94446.83
2019-03-04T03:21:31.956Z,94441.39
2019-03-04T03:22:35.377Z,94435.05
2019-03-04T03:23:38.813Z,94433.22
2019-03-04T03:24:42.255Z,94434.55
2019-03-04T03:25:45.675Z,94428.60
2019-03-04T03:26:49.101Z,94424.88
2019-03-04T03:27:52.529Z,94426.17
2019-03-04T03:28:55.959Z,94426.38
2019-03-04T03:29:59.404Z,94422.14
2019-03-04T03:31:02.891Z,94417.06
2019-03-04T03:32:06.358Z,94420.74
2019-03-04T03:33:09.790Z,94411.97
2019-03-04T03:34:13.270Z,94415.86
2019-03-04T03:35:16.822Z,94405.23
2019-03-04T03:36:20.258Z,94410.12
2019-03-04T03:37:23.677Z,94401.41
2019-03-04T03:38:27.102Z,94404.53
2019-03-04T03:39:30.557Z,94401.35
2019-03-04T03:40:34.123Z,94401.75
2019-03-04T03:41:37.596Z,94405.28
2019-03-04T03:42:41.074Z,94389.75
2019-03-04T03:43:44.492Z,94389.75
2019-03-04T03:44:47.917Z,94386.66
2019-03-04T03:45:51.426Z,94393.95
2019-03-04T03:46:54.896Z,94389.81
2019-03-04T03:47:58.324Z,94387.09
2019-03-04T03:49:01.842Z,94391.23
2019-03-04T03:50:18.363Z,94391.23
2019-03-04T03:51:21.849Z,94385.41
2019-03-04T03:52:25.368Z,94379.95
2019-03-04T03:53:28.795Z,94377.14
2019-03-04T03:54:32.226Z,94373.41
2019-03-04T03:55:35.649Z,94365.00
2019-03-04T03:56:39.105Z,94365.00
2019-03-04T03:57:42.551Z,94369.70
2019-03-04T03:58:45.980Z,94371.23
2019-03-04T03:59:49.877Z,94371.83
2019-03-04T04:00:53.314Z,94365.65
2019-03-04T04:01:56.765Z,94365.65
2019-03-04T04:03:00.338Z,94360.75
2019-03-04T04:04:03.931Z,94363.38
2019-03-04T04:05:07.900Z,94356.31
2019-03-04T04:06:11.337Z,94350.85
2019-03-04T04:07:14.772Z,94355.70
2019-03-04T04:08:18.254Z,94347.15
2019-03-04T04:09:21.677Z,94346.80
2019-03-04T04:10:25.253Z,94342.13
2019-03-04T04:11:28.680Z,94342.13
2019-03-04T04:12:32.133Z,94336.38
2019-03-04T04:13:35.566Z,94332.97
2019-03-04T04:14:39.129Z,94334.08
2019-03-04T04:15:42.632Z,94323.65
2019-03-04T04:16:46.129Z,94325.20
2019-03-04T04:17:49.581Z,94325.20
2019-03-04T04:18:53.004Z,94323.70
2019-03-04T04:19:57.722Z,94323.70
2019-03-04T04:21:01.206Z,94336.38
2019-03-04T04:22:04.704Z,94336.38
2019-03-04T04:23:08.153Z,94328.53
2019-03-04T04:24:11.744Z,94318.66
2019-03-04T04:25:16.389Z,94323.50
2019-03-04T04:26:22.279Z,94319.97
2019-03-04T04:27:25.772Z,94317.71
2019-03-04T04:28:30.292Z,94306.30
2019-03-04T04:29:35.372Z,94316.40
2019-03-04T04:30:39.570Z,94295.52
2019-03-04T04:31:43.782Z,94295.52
2019-03-04T04:32:47.271Z,94293.30
2019-03-04T04:33:50.712Z,94288.27
2019-03-04T04:34:54.240Z,94296.33
2019-03-04T04:35:57.653Z,94296.33
2019-03-04T04:37:01.079Z,94295.06
2019-03-04T04:38:04.507Z,94294.53
2019-03-04T04:39:08.025Z,94287.22
2019-03-04T04:40:13.295Z,94282.70
2019-03-04T04:41:16.729Z,94282.70
2019-03-04T04:42:20.151Z,94277.12
2019-03-04T04:43:23.583Z,94283.81
2019-03-04T04:44:27.049Z,94283.81
2019-03-04T04:45:30.512Z,94285.16
2019-03-04T04:46:53.175Z,94285.18
2019-03-04T04:47:56.675Z,94281.25
2019-03-04T04:49:00.093Z,94286.12
2019-03-04T04:50:05.417Z,94274.14
2019-03-04T04:51:08.845Z,94277.27
2019-03-04T04:52:12.334Z,94277.27
2019-03-04T04:53:15.837Z,94260.25
2019-03-04T04:54:19.324Z,94260.25
2019-03-04T04:55:22.906Z,94265.09
2019-03-04T04:56:26.342Z,94269.25
2019-03-04T04:57:29.834Z,94267.61
2019-03-04T04:58:33.259Z,94267.61
2019-03-04T04:59:36.686Z,94258.64
2019-03-04T05:00:40.245Z,94258.64
2019-03-04T05:01:43.748Z,94261.81
2019-03-04T05:02:47.240Z,94257.39
2019-03-04T05:03:50.664Z,94249.41
2019-03-04T05:04:54.107Z,94236.86
2019-03-04T05:05:57.630Z,94237.66
2019-03-04T05:07:01.087Z,94244.77
2019-03-04T05:08:04.581Z,94244.77
2019-03-04T05:09:08.092Z,94242.19
2019-03-04T05:10:16.892Z,94226.16
2019-03-04T05:11:20.330Z,94233.45
2019-03-04T05:12:23.852Z,94229.02
2019-03-04T05:13:27.343Z,94224.84
2019-03-04T05:14:30.865Z,94225.25
2019-03-04T05:15:34.293Z,94218.36
2019-03-04T05:16:37.737Z,94218.36
2019-03-04T05:17:41.269Z,94221.16
2019-03-04T05:18:44.696Z,94218.20
2019-03-04T05:19:48.125Z,94214.08
2019-03-04T05:20:51.575Z,94212.97
2019-03-04T05:21:55.097Z,94206.94
2019-03-04T05:22:58.612Z,94203.92
2019-03-04T05:24:02.116Z,94205.41
2019-03-04T05:25:05.786Z,94208.43
2019-03-04T05:26:09.278Z,94208.78
2019-03-04T05:27:12.769Z,94203.89
2019-03-04T05:28:16.215Z,94195.70
2019-03-04T05:29:19.633Z,94205.00
2019-03-04T05:30:23.523Z,94208.33
2019-03-04T05:31:26.936Z,94201.98
2019-03-04T05:32:30.375Z,94205.70
2019-03-04T05:33:33.811Z,94196.46
2019-03-04T05:34:37.240Z,94198.48
2019-03-04T05:35:40.675Z,94192.83
2019-03-04T05:36:44.093Z,94192.83
2019-03-04T05:37:47.532Z,94195.80
2019-03-04T05:38:50.964Z,94191.09
2019-03-04T05:39:54.383Z,94191.09
2019-03-04T05:40:57.807Z,94187.52
2019-03-04T05:42:01.230Z,94181.11
2019-03-04T05:43:04.807Z,94178.65
2019-03-04T05:44:08.318Z,94181.67
2019-03-04T05:45:18.488Z,94177.34
2019-03-04T05:46:21.890Z,94180.14
2019-03-04T05:47:25.413Z,94172.64
2019-03-04T05:48:28.846Z,94172.64
2019-03-04T05:49:32.307Z,94176.78
2019-03-04T05:50:35.756Z,94168.36
2019-03-04T05:51:39.271Z,94169.48
2019-03-04T05:52:42.806Z,94170.58
2019-03-04T05:53:46.279Z,94168.16
2019-03-04T05:54:49.896Z,94163.27
2019-03-04T05:55:53.414Z,94160.11
2019-03-04T05:56:56.867Z,94157.59
2019-03-04T05:58:00.300Z,94155.59
2019-03-04T05:59:03.816Z,94155.59
2019-03-04T06:00:10.310Z,94161.52
2019-03-04T06:01:16.858Z,94155.91
2019-03-04T06:02:20.362Z,94155.91
2019-03-04T06:03:23.785Z,94153.66
2019-03-04T06:04:27.317Z,94159.30
2019-03-04T06:05:30.779Z,94159.30
2019-03-04T06:06:48.090Z,94151.80
2019-03-04T06:07:55.905Z,94153.66
2019-03-04T06:08:59.327Z,94154.41
2019-03-04T06:10:02.880Z,94147.12
2019-03-04T06:11:06.308Z,94141.88
2019-03-04T06:12:09.744Z,94154.60
2019-03-04T06:13:13.173Z,94154.60
2019-03-04T06:14:16.614Z,94154.76
2019-03-04T06:15:21.003Z,94141.32
2019-03-04T06:16:24.431Z,94137.92
2019-03-04T06:17:27.848Z,94149.71
2019-03-04T06:18:31.267Z,94147.65
2019-03-04T06:19:34.773Z,94133.56
2019-03-04T06:20:38.211Z,94139.70
2019-03-04T06:21:41.636Z,94136.12
2019-03-04T06:22:45.062Z,94140.05
2019-03-04T06:23:48.489Z,94134.81
2019-03-04T06:24:51.929Z,94137.21
2019-03-04T06:25:55.382Z,94135.16
2019-03-04T06:26:58.810Z,94135.16
2019-03-04T06:28:02.238Z,94137.38
2019-03-04T06:29:05.798Z,94130.27
2019-03-04T06:30:12.272Z,94115.70
2019-03-04T06:31:15.790Z,94127.20
2019-03-04T06:32:19.226Z,94117.85
2019-03-04T06:33:22.678Z,94117.85
2019-03-04T06:34:26.373Z,94116.78
2019-03-04T06:35:29.867Z,94116.78
2019-03-04T06:36:33.377Z,94116.72
2019-03-04T06:37:36.830Z,94117.66
2019-03-04T06:38:40.255Z,94113.32
2019-03-04T06:39:43.748Z,94109.45
2019-03-04T06:40:47.172Z,94105.34
2019-03-04T06:41:50.616Z,94106.20
2019-03-04T06:42:54.037Z,94102.39
2019-03-04T06:43:57.468Z,94095.28
2019-03-04T06:45:00.900Z,94090.20
2019-03-04T06:46:04.398Z,94091.84
2019-03-04T06:47:07.835Z,94091.84
2019-03-04T06:48:11.275Z,94095.97
2019-03-04T06:49:14.707Z,94073.02
2019-03-04T06:50:48.738Z,94073.02
2019-03-04T06:51:52.230Z,94078.52
2019-03-04T06:52:56.628Z,94075.50
2019-03-04T06:54:12.048Z,94076.80
2019-03-04T06:55:44.099Z,94065.20
2019-03-04T06:56:54.547Z,94067.81
2019-03-04T06:57:58.030Z,94068.84
2019-03-04T06:59:07.404Z,94061.49
2019-03-04T07:00:19.777Z,94059.77
2019-03-04T07:01:28.867Z,94056.41
2019-03-04T07:02:37.900Z,94057.34
2019-03-04T07:03:41.507Z,94054.30
2019-03-04T07:04:56.713Z,94047.19
2019-03-04T07:06:00.213Z,94049.22
2019-03-04T07:07:03.716Z,94047.12
2019-03-04T07:08:07.178Z,94043.19
2019-03-04T07:09:10.740Z,94042.52
2019-03-04T07:10:14.163Z,94042.28
2019-03-04T07:11:17.658Z,94038.73
2019-03-04T07:12:21.158Z,94040.75
2019-03-04T07:13:24.625Z,94035.66
2019-03-04T07:14:28.055Z,94046.66
2019-03-04T07:15:31.694Z,94042.16
2019-03-04T07:16:35.121Z,94039.13
2019-03-04T07:17:38.582Z,94037.41
2019-03-04T07:18:42.140Z,94038.16
2019-03-04T07:19:45.562Z,94032.69
2019-03-04T07:20:49.152Z,94027.03
2019-03-04T07:21:52.990Z,94030.73
2019-03-04T07:22:56.432Z,94030.84
2019-03-04T07:24:00.011Z,94021.25
2019-03-04T07:25:03.834Z,94022.91
2019-03-04T07:26:07.448Z,94018.33
2019-03-04T07:27:11.036Z,94012.70
2019-03-04T07:28:14.466Z,94018.84
2019-03-04T07:29:18.129Z,94004.59
2019-03-04T07:30:21.734Z,94012.05
2019-03-04T07:31:25.205Z,94014.21
2019-03-04T07:32:28.672Z,94011.51
2019-03-04T07:33:32.200Z,94002.09
2019-03-04T07:34:35.624Z,94002.99
2019-03-04T07:35:39.093Z,94006.36
2019-03-04T07:36:42.672Z,94014.33
2019-03-04T07:37:46.101Z,94011.63
2019-03-04T07:38:56.918Z,94009.90
2019-03-04T07:40:00.545Z,93998.45
2019-03-04T07:41:04.085Z,93991.89
2019-03-04T07:42:07.709Z,93994.11
2019-03-04T07:43:11.161Z,93998.52
2019-03-04T07:44:14.657Z,93993.96
2019-03-04T07:45:18.113Z,93995.94
2019-03-04T07:46:21.708Z,93992.48
2019-03-04T07:47:25.136Z,93988.31
2019-03-04T07:48:28.571Z,93989.05
2019-03-04T07:49:32.076Z,93987.66
2019-03-04T07:50:35.589Z,93986.61
2019-03-04T07:51:39.165Z,93972.66
2019-03-04T07:52:42.684Z,93975.13
2019-03-04T07:53:46.906Z,93977.09
2019-03-04T07:54:50.462Z,93972.03
2019-03-04T07:55:53.993Z,93967.84
2019-03-04T07:56:57.535Z,93963.49
2019-03-04T07:58:00.997Z,93962.36
2019-03-04T07:59:04.958Z,93967.94
2019-03-04T08:00:11.439Z,93966.63
2019-03-04T08:01:14.891Z,93961.52
2019-03-04T08:02:18.348Z,93966.77
2019-03-04T08:03:22.015Z,93967.42
2019-03-04T08:04:25.523Z,93961.56
2019-03-04T08:05:29.062Z,93961.05
2019-03-04T08:06:32.516Z,93959.67
2019-03-04T08:07:47.759Z,93960.39
2019-03-04T08:09:13.419Z,93961.47
2019-03-04T08:10:28.559Z,93961.97
2019-03-04T08:11:47.120Z,93957.27
2019-03-04T08:12:56.069Z,93955.47
2019-03-04T08:14:02.885Z,93954.00
2019-03-04T08:15:08.566Z,93961.22
2019-03-04T08:16:12.471Z,93956.76
2019-03-04T08:17:16.124Z,93952.89
2019-03-04T08:18:19.632Z,93947.32
2019-03-04T08:19:23.133Z,93954.03
2019-03-04T08:20:26.575Z,93957.48
2019-03-04T08:21:30.103Z,93958.88
2019-03-04T08:22:33.613Z,93956.39
2019-03-04T08:23:37.075Z,93958.00
2019-03-04T08:24:40.685Z,93961.02
2019-03-04T08:25:44.245Z,93949.89
2019-03-04T08:26:47.763Z,93956.64
2019-03-04T08:27:51.565Z,93955.96
2019-03-04T08:28:55.069Z,93949.39
2019-03-04T08:29:58.500Z,93955.92
2019-03-04T08:31:01.933Z,93959.83
2019-03-04T08:32:05.397Z,93962.52
2019-03-04T08:33:08.971Z,93960.80
2019-03-04T08:34:12.397Z,93955.33
2019-03-04T08:35:15.976Z,93955.63
2019-03-04T08:36:19.477Z,93947.84
2019-03-04T08:37:22.925Z,93954.20
2019-03-04T08:38:26.353Z,93959.55
2019-03-04T08:39:29.782Z,93961.35
2019-03-04T08:40:33.357Z,93957.46
2019-03-04T08:41:36.855Z,93965.36
2019-03-04T08:42:40.364Z,93965.93
2019-03-04T08:43:43.846Z,93965.67
2019-03-04T08:44:47.226Z,93962.52
2019-03-04T08:45:50.743Z,93974.11
2019-03-04T08:46:54.170Z,93957.94
2019-03-04T08:47:57.617Z,93958.88
2019-03-04T08:49:01.135Z,93957.49
2019-03-04T08:50:08.113Z,93953.86
2019-03-04T08:51:11.561Z,93956.73
2019-03-04T08:52:15.015Z,93971.77
2019-03-04T08:53:18.487Z,93968.07
2019-03-04T08:54:21.963Z,93968.26
2019-03-04T08:55:25.394Z,93966.53
2019-03-04T08:56:28.830Z,93954.98
2019-03-04T08:57:32.348Z,93962.97
2019-03-04T08:58:35.858Z,93973.27
2019-03-04T08:59:39.288Z,93973.47
2019-03-04T09:00:42.859Z,93964.85
2019-03-04T09:01:46.298Z,93961.81
2019-03-04T09:02:49.876Z,93960.22
2019-03-04T09:03:53.334Z,93972.87
2019-03-04T09:04:56.864Z,93987.28
2019-03-04T09:06:00.283Z,93990.02
2019-03-04T09:07:04.117Z,93981.49
2019-03-04T09:08:07.649Z,93996.89
2019-03-04T09:09:11.205Z,94051.27
2019-03-04T09:10:23.268Z,94100.25
2019-03-04T09:11:26.726Z,94095.91
2019-03-04T09:12:30.154Z,94071.61
2019-03-04T09:13:33.588Z,94075.14
2019-03-04T09:14:37.218Z,94092.18
2019-03-04T09:15:40.783Z,94066.41
2019-03-04T09:16:44.353Z,94060.42
2019-03-04T09:17:47.854Z,94067.64
2019-03-04T09:18:51.299Z,94082.06
2019-03-04T09:19:54.775Z,94076.09
2019-03-04T09:20:58.267Z,94086.55
2019-03-04T09:22:01.690Z,94080.58
2019-03-04T09:23:05.174Z,94067.40
2019-03-04T09:24:08.810Z,94072.96
2019-03-04T09:25:30.071Z,94062.52
2019-03-04T09:26:26.325Z,94071.94
2019-03-04T09:27:29.779Z,94063.64
2019-03-04T09:28:33.210Z,94062.79
2019-03-04T09:29:36.779Z,94053.23
2019-03-04T09:30:40.378Z,94045.30
2019-03-04T09:31:43.877Z,94042.24
2019-03-04T09:32:47.379Z,94044.14
2019-03-04T09:33:50.855Z,94034.05
2019-03-04T09:34:54.282Z,94031.47
2019-03-04T09:35:57.803Z,94013.42
2019-03-04T09:37:01.269Z,94018.55
2019-03-04T09:38:06.351Z,94024.00
2019-03-04T09:39:11.851Z,94024.45
2019-03-04T09:40:20.387Z,94033.44
2019-03-04T09:41:23.929Z,94020.09
2019-03-04T09:42:28.040Z,94022.02
2019-03-04T09:43:31.525Z,94007.45
2019-03-04T09:44:34.959Z,94012.75
2019-03-04T09:45:39.444Z,94023.93
2019-03-04T09:46:42.970Z,94020.88
2019-03-04T09:47:46.907Z,94017.48
2019-03-04T09:48:50.400Z,94020.27
2019-03-04T09:49:53.880Z,94034.25
2019-03-04T09:50:57.333Z,94025.41
2019-03-04T09:52:00.921Z,94007.31
2019-03-04T09:53:04.565Z,94039.38
2019-03-04T09:54:08.043Z,94021.88
2019-03-04T09:55:13.486Z,94016.29
2019-03-04T09:56:17.054Z,94040.27
2019-03-04T09:57:20.583Z,94047.64
2019-03-04T09:58:24.087Z,94037.34
2019-03-04T09:59:27.604Z,94051.16
2019-03-04T10:00:40.031Z,94037.05
2019-03-04T10:01:46.703Z,94033.95
2019-03-04T10:02:50.189Z,94023.94
2019-03-04T10:04:02.486Z,94028.50
2019-03-04T10:05:17.801Z,94026.14
2019-03-04T10:06:42.195Z,94033.95
2019-03-04T10:07:51.139Z,94023.50
2019-03-04T10:09:12.518Z,94028.50
2019-03-04T10:10:27.863Z,94035.28
2019-03-04T10:11:50.462Z,94034.09
2019-03-04T10:13:06.120Z,94014.39
2019-03-04T10:14:42.703Z,94026.14
2019-03-04T10:15:55.157Z,94034.41
2019-03-04T10:17:01.651Z,94005.70
2019-03-04T10:18:11.024Z,94012.92
2019-03-04T10:19:42.775Z,94020.99
2019-03-04T10:20:58.249Z,94012.17
2019-03-04T10:22:07.317Z,94042.34
2019-03-04T10:23:34.557Z,94047.35
2019-03-04T10:24:50.154Z,94046.31
2019-03-04T10:26:02.331Z,94040.56
2019-03-04T10:27:17.255Z,94038.66
2019-03-04T10:28:32.331Z,94040.44
2019-03-04T10:29:54.876Z,94049.55
2019-03-04T10:31:04.224Z,94048.97
2019-03-04T10:32:25.638Z,94033.66
2019-03-04T10:33:51.405Z,94051.45
2019-03-04T10:35:21.890Z,94074.27
2019-03-04T10:36:58.600Z,94088.98
2019-03-04T10:38:22.321Z,94074.98
2019-03-04T10:39:55.072Z,94089.25
2019-03-04T10:41:16.419Z,94109.67
2019-03-04T10:42:34.868Z,94104.37
2019-03-04T10:44:09.985Z,94107.45
2019-03-04T10:45:34.205Z,94106.38
2019-03-04T10:46:57.002Z,94105.45
2019-03-04T10:48:00.612Z,94109.32
2019-03-04T10:49:04.140Z,94086.55
2019-03-04T10:50:10.203Z,94109.34
2019-03-04T10:51:13.700Z,94107.72
2019-03-04T10:52:17.261Z,94103.44
2019-03-04T10:53:20.705Z,94113.91
2019-03-04T10:54:24.386Z,94114.20
2019-03-04T10:55:27.889Z,94109.95
2019-03-04T10:56:31.327Z,94113.19
2019-03-04T10:57:34.762Z,94110.84
2019-03-04T10:58:38.411Z,94128.78
2019-03-04T10:59:41.843Z,94122.20
2019-03-04T11:00:45.439Z,94126.87
2019-03-04T11:01:50.105Z,94126.30
2019-03-04T11:02:53.586Z,94145.57
2019-03-04T11:03:57.070Z,94133.05
2019-03-04T11:05:00.512Z,94142.30
2019-03-04T11:06:04.047Z,94133.94
2019-03-04T11:07:07.654Z,94138.80
2019-03-04T11:08:11.071Z,94124.27
2019-03-04T11:09:14.671Z,94121.30
2019-03-04T11:10:18.182Z,94113.95
2019-03-04T11:11:29.437Z,94127.13
2019-03-04T11:12:27.165Z,94132.09
2019-03-04T11:13:30.589Z,94148.83
2019-03-04T11:14:34.032Z,94142.67
2019-03-04T11:15:37.705Z,94149.88
2019-03-04T11:16:41.316Z,94144.08
2019-03-04T11:17:44.782Z,94153.49
2019-03-04T11:18:48.205Z,94156.69
2019-03-04T11:19:51.754Z,94153.49
2019-03-04T11:20:55.265Z,94152.52
2019-03-04T11:21:58.699Z,94092.30
2019-03-04T11:23:02.186Z,94160.05
2019-03-04T11:24:06.079Z,94168.34
2019-03-04T11:25:09.735Z,94177.34
2019-03-04T11:26:13.240Z,94155.97
2019-03-04T11:27:16.886Z,94179.08
2019-03-04T11:28:20.316Z,94162.08
2019-03-04T11:29:23.895Z,94166.52
2019-03-04T11:30:31.871Z,94191.00
2019-03-04T11:31:35.626Z,94184.46
2019-03-04T11:32:39.254Z,94178.45
2019-03-04T11:33:42.967Z,94184.28
2019-03-04T11:34:46.437Z,94189.23
2019-03-04T11:35:49.983Z,94196.75
2019-03-04T11:36:53.415Z,94200.45
2019-03-04T11:37:56.851Z,94190.15
2019-03-04T11:39:04.857Z,94193.81
2019-03-04T11:40:18.368Z,94196.18
2019-03-04T11:41:23.432Z,94210.67
2019-03-04T11:42:26.955Z,94200.92
2019-03-04T11:43:30.453Z,94219.20
2019-03-04T11:44:33.927Z,94224.79
2019-03-04T11:45:37.403Z,94209.37
2019-03-04T11:46:40.846Z,94245.73
2019-03-04T11:47:44.275Z,94232.13
2019-03-04T11:48:47.877Z,94247.35
2019-03-04T11:49:53.362Z,94250.52
2019-03-04T11:50:56.697Z,94252.04
2019-03-04T11:52:00.393Z,94253.39
2019-03-04T11:53:04.049Z,94257.72
2019-03-04T11:54:07.631Z,94248.38
2019-03-04T11:55:13.808Z,94276.44
2019-03-04T11:56:17.265Z,94287.30
2019-03-04T11:57:20.743Z,94268.91
2019-03-04T11:58:24.345Z,94270.58
2019-03-04T11:59:28.480Z,94263.56
2019-03-04T12:00:41.499Z,94273.24
2019-03-04T12:01:46.572Z,94276.83
2019-03-04T12:02:50.157Z,94289.86
2019-03-04T12:03:53.674Z,94284.09
2019-03-04T12:04:57.161Z,94286.98
2019-03-04T12:06:00.531Z,94299.70
2019-03-04T12:07:04.094Z,94281.21
2019-03-04T12:08:07.714Z,94212.64
2019-03-04T12:09:13.641Z,94290.07
2019-03-04T12:10:18.063Z,94300.00
2019-03-04T12:11:21.554Z,94288.59
2019-03-04T12:12:25.078Z,94287.02
2019-03-04T12:13:28.676Z,94281.49
2019-03-04T12:14:32.180Z,94294.23
2019-03-04T12:15:35.694Z,94298.75
2019-03-04T12:16:39.133Z,94285.86
2019-03-04T12:17:42.724Z,94280.98
2019-03-04T12:18:46.193Z,94295.23
2019-03-04T12:19:49.887Z,94312.91
2019-03-04T12:20:53.310Z,94264.05
2019-03-04T12:21:56.907Z,94299.31
2019-03-04T12:23:00.420Z,94317.31
2019-03-04T12:24:04.034Z,94288.28
2019-03-04T12:25:17.763Z,94300.77
2019-03-04T12:26:21.317Z,94299.30
2019-03-04T12:27:24.898Z,94313.61
2019-03-04T12:28:28.445Z,94319.02
2019-03-04T12:29:31.952Z,94310.15
2019-03-04T12:30:35.630Z,94333.95
2019-03-04T12:31:40.695Z,94332.30
2019-03-04T12:32:44.205Z,94325.73
2019-03-04T12:33:47.735Z,94343.47
2019-03-04T12:34:51.157Z,94342.41
2019-03-04T12:35:54.667Z,94337.53
2019-03-04T12:36:58.104Z,94325.23
2019-03-04T12:38:01.556Z,94342.23
2019-03-04T12:39:06.739Z,94354.09
2019-03-04T12:40:18.193Z,94346.55
2019-03-04T12:41:21.625Z,94365.91
2019-03-04T12:42:25.060Z,94362.95